Emporium, PA

11:43 AM EDT on September 05, 2015 (GMT -0400)
Sylvan Heights | | Change Station
CLOSE
Current Station
Personal Weather Station
Location: Emporium, PA
Elevation: 1166 ft
Nearby Weather Stations

Elev 1166 ft 41.51 °N, 78.21 °W | Updated 8 seconds ago

Overcast
Overcast
74.6 °F
Feels Like 75 °F
N
0.0
Wind Variable Wind from SSE
Gusts 5.0 mph

Today
High -- | Low -- °F
--% Chance of Precip.
Yesterday
High -- | Low -- °F
Precip. -- in
6:42 AM 7:39 PM
Waning Gibbous, 47% visible
Pressure 30.25 in
Visibility 6.0 miles
Clouds Overcast 1600 ft
Heat Index 75 °F
Dew Point 69 °F
Humidity 83%
Rainfall 0.00 in
Snow Depth Not available.
UV 2 out of 12
Pollen 10.50 out of 12
Air Quality Not available.
Flu Activity Not available.
METAR KBFD 051453Z AUTO 19007KT 6SM HZ OVC016 23/18 A3029 RMK AO2 SLP242 T02280183 53003
Pressure 30.25 in
Visibility 6.0 miles
Clouds Overcast 1600 ft
Heat Index 75 °F
Dew Point 69 °F
Humidity 83%
Rainfall 0.00 in
Snow Depth Not available.
UV 2 out of 12
Pollen 10.50 out of 12
Air Quality Not available.
Flu Activity Not available.
METAR KBFD 051453Z AUTO 19007KT 6SM HZ OVC016 23/18 A3029 RMK AO2 SLP242 T02280183 53003

10-Day Weather Forecast

×

Almanac

Astronomy

Sep. 05, 2015 Rise Set
Actual Time
Civil Twilight
Nautical Twilight
Astronomical Twilight
Moon
Length of Visible Light
Length of Day
Tomorrow will be .
, % of the Moon is Illuminated

Today's Extremes

State Highs State Lows

Community

WunderPhotos

Upload Photos

1,852,483 photos uploaded!

WunderBlogs® & News

Nearby

Air Quality

  Air Quality AQ Index Pollutant
Not available.

Snow Depth

Station Depth Elevation

Earthquake Activity

City Distance Mag. Time & Date
Minimum magnitude displayed is 2.5.

Coastal Water Temperatures

Place Temperature

Stations

Nearby Weather Stations

Station Location Temp. Windchill Dew Point Humidity Wind Precip. Elev Updated Type